Time;durP1;ratioP1;P1;durP2;ratioP2;P2;SDS_P1;SDS_P2;PMS_P1;PMS_P2;Temp;Humidity;BMP_temperature;BMP_pressure;BME280_temperature;BME280_humidity;BME280_pressure;Samples;Min_cycle;Max_cycle;Signal;HPM_P1;HPM_P2
2022/02/14 00:00:07;;;;;;;30.30;15.50;;;;;;;-0.52;59.85;100249.02;106056;1271;107772;-71
2022/02/14 00:03:03;;;;;;;32.50;16.10;;;;;;;-0.59;59.99;100247.22;107744;1271;95977;-72
2022/02/14 00:05:35;;;;;;;29.60;15.40;;;;;;;-0.66;60.14;100246.97;107704;1271;95881;-72
2022/02/14 00:08:07;;;;;;;32.20;16.30;;;;;;;-0.70;60.18;100249.66;107576;1271;138314;-72
2022/02/14 00:10:39;;;;;;;33.20;16.90;;;;;;;-0.73;60.53;100250.11;107769;1271;105974;-73
2022/02/14 00:13:11;;;;;;;35.40;17.10;;;;;;;-0.74;60.17;100244.96;107577;1271;138149;-71
2022/02/14 00:15:44;;;;;;;38.10;18.40;;;;;;;-0.78;60.18;100247.66;107695;1271;96066;-72
2022/02/14 00:18:17;;;;;;;38.20;18.00;;;;;;;-0.82;60.61;100244.03;107669;1273;96298;-72
2022/02/14 00:20:49;;;;;;;35.30;18.40;;;;;;;-0.87;60.17;100243.79;107625;1273;137718;-71
2022/02/14 00:23:21;;;;;;;35.80;17.70;;;;;;;-0.94;60.52;100244.19;107772;1271;108740;-72
2022/02/14 00:25:54;;;;;;;37.00;18.30;;;;;;;-1.00;60.68;100242.23;107609;1273;138031;-72
2022/02/14 00:28:28;;;;;;;34.80;18.60;;;;;;;-1.06;60.43;100239.92;107719;1271;96146;-71
2022/02/14 00:31:00;;;;;;;37.30;19.10;;;;;;;-1.11;60.58;100243.08;107054;1272;138442;-71
2022/02/14 00:33:32;;;;;;;37.50;18.50;;;;;;;-1.16;60.85;100246.08;106089;1271;112760;-71
2022/02/14 00:36:05;;;;;;;34.10;17.40;;;;;;;-1.22;61.18;100241.58;106070;1273;108884;-70
2022/02/14 00:38:37;;;;;;;37.60;18.80;;;;;;;-1.27;60.96;100237.22;106012;1273;138065;-71
2022/02/14 00:41:09;;;;;;;33.00;17.80;;;;;;;-1.33;61.34;100240.89;106126;1274;98371;-72
2022/02/14 00:43:41;;;;;;;37.00;18.30;;;;;;;-1.37;61.15;100243.04;105959;1273;139948;-71
2022/02/14 00:46:13;;;;;;;33.70;16.50;;;;;;;-1.41;61.49;100239.23;106131;1272;113143;-70
2022/02/14 00:48:45;;;;;;;34.30;17.60;;;;;;;-1.44;61.52;100235.75;105984;1273;139556;-70
2022/02/14 00:51:17;;;;;;;39.10;17.70;;;;;;;-1.44;61.41;100235.05;106141;1274;108103;-71
2022/02/14 00:53:49;;;;;;;34.90;17.10;;;;;;;-1.47;61.68;100233.83;106205;1274;97974;-70
2022/02/14 00:56:21;;;;;;;33.80;17.60;;;;;;;-1.49;61.64;100229.02;106016;1271;138506;-70
2022/02/14 00:58:53;;;;;;;35.00;17.30;;;;;;;-1.51;61.63;100226.77;106091;1273;112467;-71
2022/02/14 01:01:28;;;;;;;35.10;18.80;;;;;;;-1.55;61.66;100226.20;105839;1273;138409;-71
2022/02/14 01:04:00;;;;;;;38.50;19.20;;;;;;;-1.60;62.04;100222.71;106009;1273;108741;-72
2022/02/14 01:06:33;;;;;;;35.70;17.50;;;;;;;-1.66;62.14;100218.67;105971;1273;138533;-72
2022/02/14 01:09:06;;;;;;;37.50;18.40;;;;;;;-1.72;61.95;100212.80;106080;1273;97941;-72
2022/02/14 01:11:38;;;;;;;34.20;17.00;;;;;;;-1.77;62.43;100212.20;105969;1273;111799;-71
2022/02/14 01:14:10;;;;;;;36.20;17.00;;;;;;;-1.81;62.46;100213.48;105832;1273;139841;-72
2022/02/14 01:16:42;;;;;;;34.60;16.50;;;;;;;-1.83;62.41;100216.36;105965;1273;108944;-72
2022/02/14 01:19:14;;;;;;;32.90;16.10;;;;;;;-1.83;62.33;100210.39;105928;1273;139003;-71
2022/02/14 01:21:46;;;;;;;34.00;15.40;;;;;;;-1.81;62.03;100213.98;105969;1273;98062;-71
2022/02/14 01:24:18;;;;;;;32.10;16.20;;;;;;;-1.77;62.09;100215.42;106057;1273;112576;-72
2022/02/14 01:26:50;;;;;;;37.00;16.70;;;;;;;-1.74;62.00;100216.34;107515;1273;139002;-72
2022/02/14 01:29:22;;;;;;;35.20;16.60;;;;;;;-1.71;61.79;100216.39;107606;1273;107344;-72
2022/02/14 01:31:54;;;;;;;35.70;16.30;;;;;;;-1.69;61.99;100217.79;107525;1273;138949;-72
2022/02/14 01:34:26;;;;;;;33.40;15.80;;;;;;;-1.67;61.78;100213.89;107641;1273;96191;-72
2022/02/14 01:36:58;;;;;;;31.10;15.50;;;;;;;-1.67;61.48;100211.51;107531;1272;138229;-72
2022/02/14 01:39:31;;;;;;;31.20;16.70;;;;;;;-1.66;61.42;100211.34;107622;1273;108882;-72
2022/02/14 01:42:03;;;;;;;32.00;16.30;;;;;;;-1.65;61.71;100209.14;107631;1273;109181;-73
2022/02/14 01:44:38;;;;;;;32.40;15.50;;;;;;;-1.66;61.54;100206.58;107483;1273;138268;-72
2022/02/14 01:47:14;;;;;;;30.80;15.80;;;;;;;-1.66;61.54;100200.78;107640;1273;96212;-72
2022/02/14 01:49:48;;;;;;;32.40;16.60;;;;;;;-1.67;61.48;100196.67;107572;1273;138071;-72
2022/02/14 01:52:20;;;;;;;36.90;16.80;;;;;;;-1.68;61.50;100201.09;106022;1273;109629;-72
2022/02/14 01:54:53;;;;;;;32.60;16.40;;;;;;;-1.69;61.22;100195.28;105875;1273;138451;-72
2022/02/14 01:57:30;;;;;;;36.70;17.50;;;;;;;-1.71;61.12;100191.16;105991;1273;97957;-71
2022/02/14 02:00:04;;;;;;;34.80;16.60;;;;;;;-1.73;61.35;100183.96;105941;1273;97647;-72
2022/02/14 02:02:42;;;;;;;36.70;17.50;;;;;;;-1.75;61.43;100184.78;105907;1273;138214;-71
2022/02/14 02:05:15;;;;;;;37.20;17.20;;;;;;;-1.79;61.43;100186.93;106015;1272;108864;-71
2022/02/14 02:07:48;;;;;;;36.80;16.80;;;;;;;-1.83;61.61;100190.78;105939;1273;138934;-71
2022/02/14 02:10:20;;;;;;;31.60;15.80;;;;;;;-1.86;61.52;100191.94;105909;1273;97913;-71
2022/02/14 02:12:54;;;;;;;33.10;15.80;;;;;;;-1.89;61.57;100188.13;105928;1273;140043;-71
2022/02/14 02:15:27;;;;;;;36.10;16.80;;;;;;;-1.89;61.75;100183.36;106007;1273;112616;-71
2022/02/14 02:18:01;;;;;;;34.80;16.10;;;;;;;-1.89;61.73;100178.59;105992;1273;108001;-71
2022/02/14 02:20:33;;;;;;;33.20;16.40;;;;;;;-1.86;61.56;100178.98;105946;1273;138064;-71
2022/02/14 02:23:05;;;;;;;30.30;16.40;;;;;;;-1.85;61.66;100179.34;105956;1273;97857;-71
2022/02/14 02:25:38;;;;;;;35.10;17.20;;;;;;;-1.85;61.58;100177.63;106673;1273;137867;-71
2022/02/14 02:28:09;;;;;;;57.90;27.90;;;;;;;-1.87;61.38;100179.81;107652;1273;112004;-71
2022/02/14 02:30:41;;;;;;;35.60;18.10;;;;;;;-1.91;61.48;100173.96;107537;1273;138873;-71
2022/02/14 02:33:13;;;;;;;31.70;16.20;;;;;;;-1.95;61.67;100174.23;107594;1273;112637;-70
2022/02/14 02:35:45;;;;;;;38.10;17.60;;;;;;;-1.99;61.63;100172.77;107606;1273;96216;-70
2022/02/14 02:38:18;;;;;;;33.80;16.60;;;;;;;-2.03;61.95;100173.56;107549;1273;139747;-71
2022/02/14 02:40:50;;;;;;;36.80;17.40;;;;;;;-2.06;61.65;100178.80;107623;1272;113159;-72
2022/02/14 02:43:22;;;;;;;34.50;16.90;;;;;;;-2.09;62.08;100179.77;107473;1273;140549;-70
2022/02/14 02:45:59;;;;;;;34.90;17.40;;;;;;;-2.12;62.12;100177.69;107302;1273;106734;-72
2022/02/14 02:48:31;;;;;;;31.40;16.20;;;;;;;-2.15;62.53;100183.26;106023;1273;139192;-71
2022/02/14 02:51:04;;;;;;;32.90;16.80;;;;;;;-2.16;62.05;100177.08;106026;1274;97873;-70
2022/02/14 02:53:37;;;;;;;37.30;17.70;;;;;;;-2.18;62.47;100182.52;105979;1273;111551;-72
2022/02/14 02:56:10;;;;;;;39.20;19.10;;;;;;;-2.18;62.33;100182.68;105907;1273;138619;-70
2022/02/14 02:58:42;;;;;;;39.50;18.90;;;;;;;-2.17;62.69;100175.70;106084;1273;108968;-72
2022/02/14 03:01:14;;;;;;;35.60;18.00;;;;;;;-2.17;62.72;100173.48;105840;1273;138231;-70
2022/02/14 03:03:47;;;;;;;37.90;18.20;;;;;;;-2.19;62.61;100172.27;106031;1273;97938;-71
2022/02/14 03:06:20;;;;;;;38.10;18.80;;;;;;;-2.21;62.67;100172.91;107717;1273;111158;-70
2022/02/14 03:08:53;;;;;;;41.60;19.20;;;;;;;-2.24;62.99;100171.33;107530;1273;138770;-71
2022/02/14 03:11:25;;;;;;;38.70;19.50;;;;;;;-2.27;62.95;100164.13;107600;1272;108763;-71
2022/02/14 03:13:58;;;;;;;37.20;19.00;;;;;;;-2.30;62.85;100165.27;107571;1271;138814;-71
2022/02/14 03:16:30;;;;;;;42.80;18.80;;;;;;;-2.33;62.91;100169.63;107664;1271;96099;-71
2022/02/14 03:19:03;;;;;;;39.00;19.10;;;;;;;-2.37;62.84;100166.98;107614;1271;139281;-72
2022/02/14 03:21:35;;;;;;;44.00;19.20;;;;;;;-2.41;63.22;100165.55;107692;1271;109031;-72
2022/02/14 03:24:08;;;;;;;39.00;17.80;;;;;;;-2.45;63.07;100162.77;107685;1271;107943;-72
2022/02/14 03:26:40;;;;;;;38.10;17.50;;;;;;;-2.47;63.02;100162.39;107550;1271;140381;-72
2022/02/14 03:29:14;;;;;;;40.60;18.50;;;;;;;-2.48;63.15;100166.30;107621;1271;97714;-72
2022/02/14 03:31:46;;;;;;;35.10;16.80;;;;;;;-2.49;63.16;100164.41;107588;1271;139534;-71
2022/02/14 03:34:18;;;;;;;35.30;18.10;;;;;;;-2.47;63.42;100160.36;107240;1271;107649;-71
2022/02/14 03:36:51;;;;;;;40.50;18.20;;;;;;;-2.46;63.22;100164.11;106054;1271;138285;-71
2022/02/14 03:39:22;;;;;;;42.40;18.40;;;;;;;-2.46;63.07;100165.33;106156;1271;97886;-70
2022/02/14 03:41:55;;;;;;;38.20;18.90;;;;;;;-2.46;62.95;100165.98;106106;1271;97835;-70
2022/02/14 03:44:27;;;;;;;40.80;19.90;;;;;;;-2.48;63.05;100167.66;106078;1271;138220;-70
2022/02/14 03:47:00;;;;;;;41.70;19.30;;;;;;;-2.52;62.94;100160.09;106111;1271;108917;-71
2022/02/14 03:49:32;;;;;;;39.30;19.20;;;;;;;-2.54;63.33;100162.92;106039;1271;138305;-71
2022/02/14 03:52:06;;;;;;;41.10;20.10;;;;;;;-2.59;62.96;100158.25;106113;1271;97855;-70
2022/02/14 03:54:38;;;;;;;39.50;19.10;;;;;;;-2.62;62.93;100158.52;107611;1271;140166;-71
2022/02/14 03:57:10;;;;;;;41.10;19.60;;;;;;;-2.65;63.16;100157.45;107723;1271;112628;-72
2022/02/14 03:59:42;;;;;;;42.20;19.40;;;;;;;-2.69;63.11;100158.58;107068;1271;108377;-71
2022/02/14 04:02:14;;;;;;;36.20;18.10;;;;;;;-2.70;63.43;100154.44;106120;1271;139259;-71
2022/02/14 04:04:47;;;;;;;38.10;18.10;;;;;;;-2.71;63.22;100146.95;106076;1271;97935;-70
2022/02/14 04:07:19;;;;;;;39.90;19.10;;;;;;;-2.70;63.56;100142.19;105983;1271;139353;-71
2022/02/14 04:09:51;;;;;;;36.10;18.80;;;;;;;-2.69;63.34;100141.55;106231;1271;111019;-71
2022/02/14 04:12:23;;;;;;;36.40;18.60;;;;;;;-2.69;63.38;100142.75;106087;1271;108825;-71
2022/02/14 04:14:55;;;;;;;39.10;18.30;;;;;;;-2.70;63.23;100141.02;105994;1273;137935;-70
2022/02/14 04:17:27;;;;;;;38.40;18.60;;;;;;;-2.71;63.06;100139.10;106140;1271;97843;-70
2022/02/14 04:19:59;;;;;;;42.40;19.30;;;;;;;-2.73;63.44;100138.22;105996;1273;138285;-70
2022/02/14 04:22:32;;;;;;;37.10;18.60;;;;;;;-2.75;63.22;100137.34;106196;1271;112713;-71
2022/02/14 04:25:05;;;;;;;38.20;18.60;;;;;;;-2.77;63.13;100136.27;106044;1271;139286;-71
2022/02/14 04:27:38;;;;;;;41.20;19.10;;;;;;;-2.79;63.45;100137.77;107717;1271;108993;-72
2022/02/14 04:30:12;;;;;;;38.80;18.00;;;;;;;-2.82;63.18;100133.64;107748;1271;96305;-70
2022/02/14 04:32:44;;;;;;;36.90;17.50;;;;;;;-2.83;63.20;100134.47;107557;1271;138653;-72
2022/02/14 04:35:16;;;;;;;34.30;16.90;;;;;;;-2.84;63.33;100131.90;107745;1271;112535;-71
2022/02/14 04:37:49;;;;;;;38.30;18.80;;;;;;;-2.82;63.23;100132.62;107503;1273;138738;-71
2022/02/14 04:40:21;;;;;;;38.20;17.40;;;;;;;-2.79;63.25;100137.10;107735;1271;109019;-72
2022/02/14 04:42:52;;;;;;;34.50;16.80;;;;;;;-2.76;62.97;100132.04;107602;1271;138279;-72
2022/02/14 04:45:25;;;;;;;38.30;18.70;;;;;;;-2.75;63.24;100130.87;107608;1271;96280;-72
2022/02/14 04:47:57;;;;;;;47.70;19.60;;;;;;;-2.76;63.29;100126.95;107737;1271;111878;-72
2022/02/14 04:50:29;;;;;;;41.50;19.60;;;;;;;-2.76;63.20;100128.30;107578;1271;138220;-72
2022/02/14 04:53:01;;;;;;;39.20;19.40;;;;;;;-2.77;63.02;100126.08;107703;1271;107799;-71
2022/02/14 04:55:33;;;;;;;40.00;19.20;;;;;;;-2.79;63.01;100129.61;107643;1271;138962;-71
2022/02/14 04:58:05;;;;;;;40.60;19.10;;;;;;;-2.80;63.41;100129.92;107767;1271;95941;-71
2022/02/14 05:00:37;;;;;;;39.60;19.40;;;;;;;-2.82;63.62;100124.96;107572;1271;140368;-71
2022/02/14 05:03:09;;;;;;;36.20;17.90;;;;;;;-2.83;63.26;100128.52;107558;1273;110376;-72
2022/02/14 05:05:41;;;;;;;38.60;18.40;;;;;;;-2.84;62.87;100132.23;107563;1273;107776;-72
2022/02/14 05:08:13;;;;;;;39.30;17.20;;;;;;;-2.85;63.57;100133.07;107576;1271;139219;-72
2022/02/14 05:10:48;;;;;;;35.80;17.30;;;;;;;-2.83;63.15;100133.44;107696;1271;95899;-71
2022/02/14 05:13:20;;;;;;;40.80;18.30;;;;;;;-2.82;63.31;100133.47;107636;1271;137783;-71
2022/02/14 05:15:52;;;;;;;36.00;18.00;;;;;;;-2.80;63.42;100134.01;107657;1271;108821;-72
2022/02/14 05:18:24;;;;;;;38.00;18.40;;;;;;;-2.79;63.50;100134.70;107597;1273;108920;-71
2022/02/14 05:20:56;;;;;;;38.80;17.90;;;;;;;-2.80;63.13;100135.20;107547;1273;138489;-72
2022/02/14 05:23:28;;;;;;;41.80;19.50;;;;;;;-2.81;63.38;100135.87;106392;1273;97765;-71
2022/02/14 05:26:01;;;;;;;37.60;18.90;;;;;;;-2.82;63.61;100137.37;105987;1273;138045;-73
2022/02/14 05:28:33;;;;;;;41.30;19.80;;;;;;;-2.84;63.43;100133.59;106004;1273;110099;-71
2022/02/14 05:31:05;;;;;;;39.40;19.40;;;;;;;-2.86;63.56;100133.89;105829;1273;138467;-71
2022/02/14 05:33:37;;;;;;;41.10;19.80;;;;;;;-2.88;63.58;100134.17;105981;1273;97933;-70
2022/02/14 05:36:09;;;;;;;41.70;18.90;;;;;;;-2.89;63.63;100139.77;106111;1273;97846;-71
2022/02/14 05:38:42;;;;;;;42.00;19.00;;;;;;;-2.90;63.77;100136.35;105963;1273;139993;-73
2022/02/14 05:41:16;;;;;;;43.30;19.40;;;;;;;-2.90;63.60;100134.64;106066;1273;109391;-71
2022/02/14 05:43:49;;;;;;;40.20;18.70;;;;;;;-2.91;63.73;100131.91;106016;1273;138478;-71
2022/02/14 05:46:21;;;;;;;45.00;19.90;;;;;;;-2.91;63.55;100129.86;106652;1273;97841;-71
2022/02/14 05:48:53;;;;;;;41.50;20.00;;;;;;;-2.91;64.00;100133.09;106226;1273;138771;-71
2022/02/14 05:51:27;;;;;;;40.10;19.10;;;;;;;-2.92;63.75;100134.94;107163;1271;112454;-71
2022/02/14 05:53:59;;;;;;;44.50;20.50;;;;;;;-2.94;63.92;100133.55;106505;1271;109546;-71
2022/02/14 05:56:31;;;;;;;42.80;20.10;;;;;;;-2.95;63.97;100135.23;107535;1271;139695;-71
2022/02/14 05:59:03;;;;;;;45.80;20.00;;;;;;;-2.97;63.87;100140.30;107637;1273;96064;-72
2022/02/14 06:01:35;;;;;;;47.90;18.60;;;;;;;-2.98;64.21;100140.61;107535;1271;139464;-71
2022/02/14 06:04:13;;;;;;;39.60;19.30;;;;;;;-2.97;63.79;100137.23;107672;1271;112084;-72
2022/02/14 06:06:45;;;;;;;38.30;18.60;;;;;;;-2.93;64.04;100136.13;107596;1271;141310;-71
2022/02/14 06:09:17;;;;;;;37.60;18.70;;;;;;;-2.86;63.79;100143.74;107721;1271;107967;-72
2022/02/14 06:11:49;;;;;;;42.80;19.60;;;;;;;-2.79;63.64;100140.16;107713;1271;96066;-73
2022/02/14 06:14:21;;;;;;;49.50;20.10;;;;;;;-2.69;63.72;100136.61;107578;1271;138104;-71
2022/02/14 06:16:53;;;;;;;43.20;19.80;;;;;;;-2.59;63.68;100135.95;107270;1271;111178;-70
2022/02/14 06:19:28;;;;;;;37.00;18.90;;;;;;;-2.47;63.52;100138.06;105962;1273;138498;-70
2022/02/14 06:22:00;;;;;;;41.40;20.30;;;;;;;-2.33;63.25;100135.57;106108;1271;108834;-72
2022/02/14 06:24:34;;;;;;;43.80;20.40;;;;;;;-2.19;62.52;100139.05;105979;1272;97822;-71
2022/02/14 06:27:06;;;;;;;37.70;19.20;;;;;;;-2.05;62.59;100135.56;106030;1271;137992;-71
2022/02/14 06:29:38;;;;;;;42.20;20.20;;;;;;;-1.88;62.40;100135.16;107441;1273;112645;-71
2022/02/14 06:32:10;;;;;;;42.90;20.30;;;;;;;-1.69;61.60;100128.80;107513;1273;138841;-72
2022/02/14 06:34:42;;;;;;;42.50;20.20;;;;;;;-1.50;61.59;100127.39;107604;1273;108887;-71
2022/02/14 06:37:14;;;;;;;37.20;18.90;;;;;;;-1.26;60.71;100127.91;106939;1271;138634;-70
2022/02/14 06:39:46;;;;;;;40.60;19.70;;;;;;;-0.99;60.19;100121.93;107525;1271;96250;-71
2022/02/14 06:42:19;;;;;;;42.40;19.80;;;;;;;-0.68;59.73;100122.46;107640;1273;112519;-71
2022/02/14 06:44:51;;;;;;;41.10;19.60;;;;;;;-0.35;59.05;100119.40;107447;1271;138078;-71
2022/02/14 06:47:22;;;;;;;36.50;19.20;;;;;;;-0.02;57.96;100116.45;105895;1273;108820;-71
2022/02/14 06:49:56;;;;;;;41.60;18.50;;;;;;;0.34;56.98;100115.71;105996;1273;138139;-72
2022/02/14 06:52:28;;;;;;;51.30;20.00;;;;;;;0.70;56.22;100115.95;107288;1273;98339;-72
2022/02/14 06:55:00;;;;;;;44.60;20.20;;;;;;;1.07;55.19;100113.90;107537;1273;139020;-72
2022/02/14 06:57:32;;;;;;;36.20;18.30;;;;;;;1.47;54.33;100106.66;107676;1273;107690;-72
2022/02/14 07:00:10;;;;;;;32.40;17.90;;;;;;;1.90;53.35;100105.36;107581;1273;108315;-73
2022/02/14 07:02:43;;;;;;;33.10;19.00;;;;;;;2.36;52.80;100107.40;107418;1272;139524;-72
2022/02/14 07:05:17;;;;;;;35.80;19.70;;;;;;;2.77;52.31;100102.86;106474;1273;97826;-72
2022/02/14 07:07:49;;;;;;;39.10;20.70;;;;;;;3.21;51.35;100100.28;105998;1273;137819;-71
2022/02/14 07:10:21;;;;;;;38.70;19.30;;;;;;;3.54;51.59;100098.23;105977;1272;108012;-71
2022/02/14 07:12:53;;;;;;;36.90;19.50;;;;;;;3.67;51.20;100098.50;107036;1273;140112;-72
2022/02/14 07:15:25;;;;;;;36.90;19.40;;;;;;;3.50;49.78;100101.35;107569;1272;97036;-71
2022/02/14 07:17:57;;;;;;;36.40;18.90;;;;;;;3.28;49.99;100098.55;107586;1273;95751;-72
2022/02/14 07:20:29;;;;;;;36.00;19.50;;;;;;;3.19;49.45;100099.27;107535;1272;137858;-72
2022/02/14 07:23:02;;;;;;;32.90;19.20;;;;;;;3.18;49.27;100098.24;107735;1271;108911;-71
2022/02/14 07:25:34;;;;;;;33.60;18.90;;;;;;;3.25;48.99;100096.50;107263;1273;138175;-71
2022/02/14 07:28:07;;;;;;;38.70;19.20;;;;;;;3.37;49.06;100096.25;107699;1271;96000;-72
2022/02/14 07:30:39;;;;;;;35.30;17.50;;;;;;;3.53;49.11;100095.99;107752;1271;96014;-71
2022/02/14 07:33:11;;;;;;;31.60;16.80;;;;;;;3.74;48.34;100092.59;107491;1272;139525;-72
2022/02/14 07:35:43;;;;;;;32.60;17.10;;;;;;;3.95;47.70;100088.48;107707;1271;108929;-72
2022/02/14 07:38:15;;;;;;;31.30;17.20;;;;;;;4.22;47.37;100090.33;107578;1271;138882;-72
2022/02/14 07:40:47;;;;;;;30.80;16.00;;;;;;;4.44;46.32;100095.63;107750;1271;96294;-72
2022/02/14 07:43:21;;;;;;;35.40;16.40;;;;;;;4.67;46.56;100092.81;107618;1271;138754;-71
2022/02/14 07:45:53;;;;;;;27.50;16.20;;;;;;;4.97;46.09;100094.72;107739;1271;111568;-71
2022/02/14 07:48:25;;;;;;;33.60;16.50;;;;;;;5.31;45.94;100087.23;107671;1271;109131;-71
2022/02/14 07:50:57;;;;;;;29.80;15.80;;;;;;;5.80;45.39;100083.08;107506;1271;137984;-71
2022/02/14 07:53:29;;;;;;;29.00;14.60;;;;;;;6.27;43.92;100081.83;107719;1271;96258;-71
2022/02/14 07:56:01;;;;;;;23.70;15.00;;;;;;;6.73;43.32;100076.84;107583;1271;137718;-70
2022/02/14 07:58:33;;;;;;;47.40;16.70;;;;;;;7.07;42.22;100076.33;107650;1271;111380;-72
2022/02/14 08:01:05;;;;;;;29.60;14.80;;;;;;;7.44;43.02;100072.92;107532;1273;138135;-72
2022/02/14 08:03:37;;;;;;;27.10;15.30;;;;;;;8.07;42.08;100069.20;107592;1271;108738;-73
2022/02/14 08:06:30;;;;;;;40.10;16.40;;;;;;;8.84;41.36;100066.86;107697;1271;96092;-73
2022/02/14 08:09:02;;;;;;;34.50;16.80;;;;;;;9.38;39.38;100056.45;107571;1271;138252;-74
2022/02/14 08:11:34;;;;;;;22.70;15.20;;;;;;;9.80;38.03;100057.58;107621;1271;110418;-71
2022/02/14 08:14:06;;;;;;;24.40;15.20;;;;;;;10.04;36.81;100061.30;107529;1271;139090;-71
2022/02/14 08:16:38;;;;;;;29.10;15.60;;;;;;;10.20;36.88;100055.75;107650;1271;108244;-71
2022/02/14 08:19:10;;;;;;;30.60;15.70;;;;;;;10.30;37.18;100056.13;107589;1271;138616;-69
2022/02/14 08:21:43;;;;;;;31.40;16.50;;;;;;;10.57;37.69;100060.21;107022;1271;96479;-71
2022/02/14 08:24:15;;;;;;;26.30;16.20;;;;;;;10.77;36.98;100060.55;107802;1271;111274;-71
2022/02/14 08:26:48;;;;;;;28.30;15.60;;;;;;;10.98;35.27;100060.66;107323;1273;138361;-71
2022/02/14 08:29:20;;;;;;;26.00;16.40;;;;;;;11.10;35.16;100050.45;106018;1273;109371;-70
2022/02/14 08:31:52;;;;;;;24.80;15.30;;;;;;;11.22;35.50;100050.35;105987;1271;138213;-69
2022/02/14 08:34:24;;;;;;;27.20;15.40;;;;;;;11.36;35.24;100044.05;106055;1273;97973;-70
2022/02/14 08:36:56;;;;;;;30.90;15.60;;;;;;;11.51;34.85;100049.94;106094;1271;138214;-70
2022/02/14 08:39:28;;;;;;;28.10;15.60;;;;;;;11.60;34.47;100049.93;106128;1273;108413;-71
2022/02/14 08:42:00;;;;;;;23.80;14.40;;;;;;;11.53;34.40;100047.09;106027;1273;108866;-71
2022/02/14 08:44:34;;;;;;;31.90;15.00;;;;;;;11.48;35.08;100042.90;106041;1273;138343;-70
2022/02/14 08:47:09;;;;;;;25.60;15.50;;;;;;;11.66;34.57;100041.18;106083;1273;97835;-70
2022/02/14 08:49:41;;;;;;;27.90;15.00;;;;;;;11.76;33.68;100041.30;106077;1271;138154;-70
2022/02/14 08:52:12;;;;;;;24.70;14.90;;;;;;;11.87;34.37;100039.46;106152;1271;109075;-71
2022/02/14 08:54:45;;;;;;;26.20;14.40;;;;;;;12.10;33.90;100044.10;106069;1273;108389;-69
2022/02/14 08:57:17;;;;;;;43.80;22.70;;;;;;;12.31;34.37;100039.56;107025;1271;138066;-70
2022/02/14 08:59:50;;;;;;;25.20;14.80;;;;;;;12.46;32.39;100041.71;106134;1272;97838;-69
2022/02/14 09:02:22;;;;;;;25.40;15.60;;;;;;;12.37;32.63;100043.31;105838;1271;139081;-70
2022/02/14 09:04:55;;;;;;;21.80;14.30;;;;;;;12.28;32.91;100045.77;105903;1271;108437;-70
2022/02/14 09:07:28;;;;;;;23.50;14.50;;;;;;;12.17;32.98;100046.95;107525;1271;138338;-71
2022/02/14 09:10:00;;;;;;;25.80;14.70;;;;;;;12.17;33.77;100039.09;107528;1271;95989;-71
2022/02/14 09:12:32;;;;;;;22.30;13.80;;;;;;;12.31;33.53;100035.17;107737;1271;96195;-71
2022/02/14 09:15:05;;;;;;;24.40;14.00;;;;;;;12.34;32.85;100040.11;107628;1271;138194;-70
2022/02/14 09:17:37;;;;;;;24.10;14.20;;;;;;;12.38;33.79;100036.45;107734;1271;108953;-71
2022/02/14 09:20:11;;;;;;;21.70;13.50;;;;;;;12.56;33.44;100032.34;107581;1271;138224;-71
2022/02/14 09:22:44;;;;;;;21.80;14.30;;;;;;;12.75;32.80;100030.64;107759;1271;96084;-70
2022/02/14 09:25:16;;;;;;;25.10;14.60;;;;;;;12.77;31.81;100026.75;107581;1272;138311;-70
2022/02/14 09:27:49;;;;;;;25.30;14.10;;;;;;;12.59;31.77;100026.98;107677;1272;111448;-71
2022/02/14 09:30:21;;;;;;;23.50;14.50;;;;;;;12.47;32.51;100021.09;107695;1271;108161;-71
2022/02/14 09:32:54;;;;;;;27.40;14.50;;;;;;;12.54;32.56;100021.10;107527;1273;139896;-70
2022/02/14 09:35:29;;;;;;;30.00;14.70;;;;;;;12.60;32.19;100010.91;107604;1273;96162;-70
2022/02/14 09:38:04;;;;;;;23.50;14.50;;;;;;;12.55;32.40;100010.61;107481;1272;139203;-70
2022/02/14 09:40:38;;;;;;;29.40;15.50;;;;;;;12.54;32.89;100009.63;107654;1273;112678;-72
2022/02/14 09:43:15;;;;;;;23.70;15.50;;;;;;;12.49;32.79;100007.90;107577;1273;138940;-70
2022/02/14 09:45:47;;;;;;;25.80;15.20;;;;;;;12.59;32.72;100007.66;107627;1272;108484;-71
2022/02/14 09:48:20;;;;;;;25.10;14.50;;;;;;;12.65;33.58;100004.91;107688;1273;96078;-71
2022/02/14 09:50:57;;;;;;;24.00;14.20;;;;;;;12.58;32.65;100004.37;107483;1273;138127;-71
2022/02/14 09:53:29;;;;;;;21.40;14.20;;;;;;;12.63;32.87;99998.89;107700;1273;112613;-72
2022/02/14 09:56:02;;;;;;;25.20;14.40;;;;;;;12.79;33.03;99995.77;107568;1273;138122;-71
2022/02/14 09:58:34;;;;;;;22.50;13.90;;;;;;;12.80;32.88;99991.35;107569;1273;109018;-70
2022/02/14 10:01:07;;;;;;;26.50;14.60;;;;;;;12.91;32.33;99989.81;107576;1273;139442;-70
2022/02/14 10:03:53;;;;;;;23.80;14.30;;;;;;;12.92;32.24;99997.10;107693;1271;96192;-71
2022/02/14 10:06:30;;;;;;;25.90;14.70;;;;;;;12.90;32.75;99989.68;107763;1271;111535;-71
2022/02/14 10:09:10;;;;;;;24.60;13.90;;;;;;;12.80;33.01;99980.75;107560;1273;138007;-73
2022/02/14 10:12:01;;;;;;;20.50;13.70;;;;;;;12.86;33.17;99982.70;107579;1271;107950;-72
2022/02/14 10:14:35;;;;;;;23.20;14.10;;;;;;;12.79;32.34;99978.52;107456;1271;139101;-71
2022/02/14 10:17:11;;;;;;;24.40;14.80;;;;;;;12.68;33.28;99978.30;106140;1273;97747;-72
2022/02/14 10:19:56;;;;;;;25.30;13.80;;;;;;;12.59;33.06;99981.82;106018;1271;138064;-70
2022/02/14 10:22:29;;;;;;;25.00;14.00;;;;;;;12.50;33.57;99974.38;106152;1273;109108;-72
2022/02/14 10:25:01;;;;;;;21.60;14.50;;;;;;;12.54;32.95;99972.43;106000;1273;138440;-71
2022/02/14 10:27:37;;;;;;;21.70;14.50;;;;;;;12.47;32.93;99972.61;105917;1273;97927;-71
2022/02/14 10:30:14;;;;;;;21.60;13.40;;;;;;;12.37;33.45;99978.27;107716;1272;96166;-71
2022/02/14 10:32:54;;;;;;;19.30;13.20;;;;;;;12.11;32.71;99978.02;107609;1271;138560;-71
2022/02/14 10:35:27;;;;;;;24.30;14.00;;;;;;;11.84;33.53;99972.70;107758;1271;110146;-71
2022/02/14 10:38:03;;;;;;;24.00;13.50;;;;;;;11.73;33.59;99984.10;107573;1272;138011;-72
2022/02/14 10:40:36;;;;;;;22.90;13.70;;;;;;;11.50;33.30;99973.38;107711;1271;95930;-72
2022/02/14 10:43:08;;;;;;;20.50;13.60;;;;;;;11.30;33.93;99968.94;107524;1271;140255;-72
2022/02/14 10:45:54;;;;;;;20.00;13.70;;;;;;;11.18;34.15;99972.55;107547;1271;111438;-71
2022/02/14 10:48:39;;;;;;;18.10;13.10;;;;;;;10.98;34.21;99969.52;107281;1271;109276;-70
2022/02/14 10:51:19;;;;;;;27.30;14.30;;;;;;;10.86;34.81;99973.09;107434;1271;138089;-71
2022/02/14 10:53:55;;;;;;;22.20;13.90;;;;;;;10.78;34.93;99966.59;107514;1271;96205;-71
2022/02/14 10:56:27;;;;;;;22.20;14.10;;;;;;;10.78;35.42;99963.81;106441;1273;138028;-72
2022/02/14 10:59:19;;;;;;;27.50;13.30;;;;;;;10.80;35.45;99963.23;107679;1271;112611;-73
2022/02/14 11:01:51;;;;;;;23.80;14.40;;;;;;;10.75;35.51;99950.01;107541;1271;140203;-72
2022/02/14 11:04:23;;;;;;;24.60;14.10;;;;;;;10.73;35.21;99954.45;107582;1271;107909;-71
2022/02/14 11:06:55;;;;;;;22.50;13.50;;;;;;;10.63;35.93;99945.63;107676;1271;96269;-71
2022/02/14 11:09:29;;;;;;;20.40;13.80;;;;;;;10.50;35.19;99958.61;107604;1271;137633;-71
2022/02/14 11:12:03;;;;;;;27.60;14.80;;;;;;;10.26;35.66;99947.81;107691;1271;112685;-72
2022/02/14 11:14:38;;;;;;;19.90;14.20;;;;;;;10.11;35.45;99954.04;107613;1271;139955;-72
2022/02/14 11:17:13;;;;;;;25.10;13.60;;;;;;;9.93;35.81;99947.73;107677;1271;109135;-72
2022/02/14 11:19:48;;;;;;;22.90;13.20;;;;;;;9.85;36.18;99936.02;107465;1273;138621;-72
2022/02/14 11:22:20;;;;;;;20.90;13.10;;;;;;;9.80;36.75;99931.67;107716;1271;96946;-71